createdAt,value
2019-01-16T00:01:41.674Z,4.70
2019-01-16T00:04:20.899Z,4.53
2019-01-16T00:06:50.755Z,4.20
2019-01-16T00:09:23.508Z,4.28
2019-01-16T00:11:53.353Z,4.30
2019-01-16T00:14:23.249Z,4.20
2019-01-16T00:16:53.134Z,3.87
2019-01-16T00:19:38.010Z,4.12
2019-01-16T00:22:25.978Z,4.00
2019-01-16T00:24:58.823Z,4.08
2019-01-16T00:27:40.818Z,4.22
2019-01-16T00:30:32.218Z,3.87
2019-01-16T00:33:04.895Z,3.62
2019-01-16T00:35:37.130Z,3.98
2019-01-16T00:38:22.161Z,3.87
2019-01-16T00:40:57.975Z,4.12
2019-01-16T00:43:44.147Z,3.67
2019-01-16T00:46:13.986Z,3.92
2019-01-16T00:48:49.706Z,4.10
2019-01-16T00:51:19.544Z,4.25
2019-01-16T00:54:04.603Z,4.10
2019-01-16T00:56:40.227Z,3.98
2019-01-16T00:59:13.158Z,4.20
2019-01-16T01:01:57.962Z,4.22
2019-01-16T01:04:44.783Z,4.10
2019-01-16T01:07:31.208Z,4.53
2019-01-16T01:10:01.062Z,4.65
2019-01-16T01:12:47.430Z,4.40
2019-01-16T01:15:32.245Z,4.55
2019-01-16T01:18:02.098Z,4.80
2019-01-16T01:20:50.762Z,4.62
2019-01-16T01:23:20.764Z,4.60
2019-01-16T01:25:56.639Z,4.90
2019-01-16T01:28:38.731Z,4.85
2019-01-16T01:31:23.972Z,4.87
2019-01-16T01:34:10.430Z,5.00
2019-01-16T01:36:56.907Z,5.13
2019-01-16T01:39:33.070Z,5.12
2019-01-16T01:42:02.934Z,5.28
2019-01-16T01:44:32.779Z,5.43
2019-01-16T01:47:05.499Z,5.20
2019-01-16T01:49:44.033Z,5.22
2019-01-16T01:52:13.875Z,5.50
2019-01-16T01:54:52.799Z,5.20
2019-01-16T01:57:25.355Z,5.53
2019-01-16T01:59:55.219Z,5.45
2019-01-16T02:02:33.946Z,5.30
2019-01-16T02:05:03.819Z,5.03
2019-01-16T02:07:36.614Z,5.35
2019-01-16T02:10:27.663Z,5.35
2019-01-16T02:13:06.486Z,5.12
2019-01-16T02:15:38.987Z,5.30
2019-01-16T02:18:23.897Z,4.97
2019-01-16T02:21:05.555Z,5.20
2019-01-16T02:23:47.362Z,5.15
2019-01-16T02:26:17.234Z,5.00
2019-01-16T02:29:03.674Z,5.20
2019-01-16T02:31:50.220Z,5.03
2019-01-16T02:34:23.070Z,5.40
2019-01-16T02:36:55.667Z,5.40
2019-01-16T02:39:31.423Z,5.47
2019-01-16T02:42:04.070Z,5.25
2019-01-16T02:44:42.915Z,5.75
2019-01-16T02:47:15.574Z,5.60
2019-01-16T02:49:54.591Z,5.60
2019-01-16T02:52:42.778Z,5.70
2019-01-16T02:55:12.609Z,5.72
2019-01-16T02:57:42.446Z,6.00
2019-01-16T03:00:13.303Z,6.00
2019-01-16T03:02:43.136Z,6.20
2019-01-16T03:05:29.605Z,6.10
2019-01-16T03:08:02.467Z,6.10
2019-01-16T03:10:49.138Z,6.40
2019-01-16T03:13:18.974Z,6.33
2019-01-16T03:15:48.807Z,6.30
2019-01-16T03:18:18.663Z,6.25
2019-01-16T03:21:06.622Z,6.35
2019-01-16T03:23:39.134Z,6.80
2019-01-16T03:26:20.929Z,6.60
2019-01-16T03:28:59.742Z,6.67
2019-01-16T03:31:35.675Z,6.75
2019-01-16T03:34:14.330Z,6.80
2019-01-16T03:36:56.204Z,7.25
2019-01-16T03:39:28.738Z,6.87
2019-01-16T03:42:01.227Z,6.85
2019-01-16T03:44:31.094Z,7.00
2019-01-16T03:47:13.170Z,6.97
2019-01-16T03:49:43.055Z,7.15
2019-01-16T03:52:25.098Z,7.70
2019-01-16T03:55:00.831Z,7.62
2019-01-16T03:57:33.566Z,7.90
2019-01-16T04:00:21.578Z,7.90
2019-01-16T04:03:03.649Z,8.20
2019-01-16T04:05:36.354Z,7.78
2019-01-16T04:08:12.059Z,8.73
2019-01-16T04:10:57.832Z,9.08
2019-01-16T04:13:33.646Z,10.10
2019-01-16T04:16:06.518Z,10.73
2019-01-16T04:18:42.601Z,11.00
2019-01-16T04:21:21.736Z,11.33
2019-01-16T04:24:09.652Z,11.88
2019-01-16T04:26:58.462Z,11.83
2019-01-16T04:29:37.358Z,11.97
2019-01-16T04:32:07.238Z,12.98
2019-01-16T04:34:40.038Z,12.00
2019-01-16T04:37:09.875Z,12.70
2019-01-16T04:39:51.750Z,11.68
2019-01-16T04:42:21.583Z,11.30
2019-01-16T04:44:51.434Z,11.85
2019-01-16T04:47:37.630Z,11.40
2019-01-16T04:50:09.526Z,11.68
2019-01-16T04:52:55.996Z,11.63
2019-01-16T04:55:40.491Z,11.40
2019-01-16T04:58:16.326Z,11.73
2019-01-16T05:00:49.052Z,12.15
2019-01-16T05:03:35.441Z,11.85
2019-01-16T05:06:11.227Z,12.47
2019-01-16T05:08:46.997Z,12.28
2019-01-16T05:11:19.807Z,12.70
2019-01-16T05:13:49.658Z,12.63
2019-01-16T05:16:36.074Z,12.37
2019-01-16T05:19:08.717Z,13.43
2019-01-16T05:21:38.551Z,13.05
2019-01-16T05:24:20.287Z,13.35
2019-01-16T05:26:53.001Z,13.37
2019-01-16T05:29:28.782Z,13.28
2019-01-16T05:31:58.618Z,14.15
2019-01-16T05:34:34.278Z,13.48
2019-01-16T05:37:20.042Z,14.00
2019-01-16T05:39:49.904Z,13.40
2019-01-16T05:42:24.147Z,13.45
2019-01-16T05:44:54.019Z,13.00
2019-01-16T05:47:29.833Z,13.93
2019-01-16T05:50:02.847Z,13.45
2019-01-16T05:52:49.118Z,14.43
2019-01-16T05:55:18.990Z,13.65
2019-01-16T05:57:52.238Z,14.40
2019-01-16T06:00:22.096Z,13.70
2019-01-16T06:02:54.622Z,14.40
2019-01-16T06:05:33.213Z,13.80
2019-01-16T06:08:03.079Z,14.18
2019-01-16T06:10:38.930Z,14.55
2019-01-16T06:13:08.789Z,14.47
2019-01-16T06:15:38.622Z,14.90
2019-01-16T06:18:17.710Z,13.70
2019-01-16T06:20:51.317Z,14.40
2019-01-16T06:23:23.680Z,14.73
2019-01-16T06:26:05.324Z,14.73
2019-01-16T06:28:43.931Z,19.17
2019-01-16T06:31:16.729Z,14.38
2019-01-16T06:33:46.609Z,14.10
2019-01-16T06:36:32.963Z,14.95
2019-01-16T06:39:08.798Z,14.87
2019-01-16T06:41:44.266Z,14.30
2019-01-16T06:44:30.853Z,15.00
2019-01-16T06:47:16.199Z,14.78
2019-01-16T06:50:01.527Z,14.93
2019-01-16T06:52:41.559Z,15.17
2019-01-16T06:55:11.434Z,14.87
2019-01-16T06:57:44.463Z,14.47
2019-01-16T07:00:15.510Z,14.98
2019-01-16T07:03:01.678Z,15.50
2019-01-16T07:05:37.657Z,15.05
2019-01-16T07:08:16.471Z,14.85
2019-01-16T07:10:46.298Z,15.15
2019-01-16T07:13:16.134Z,15.25
2019-01-16T07:16:04.039Z,15.75
2019-01-16T07:18:39.681Z,15.40
2019-01-16T07:21:09.530Z,15.70
2019-01-16T07:23:42.126Z,15.63
2019-01-16T07:26:30.167Z,15.95
2019-01-16T07:29:12.010Z,15.98
2019-01-16T07:31:44.521Z,15.57
2019-01-16T07:34:14.354Z,15.85
2019-01-16T07:36:47.278Z,15.60
2019-01-16T07:39:29.322Z,16.12
2019-01-16T07:42:01.958Z,16.37
2019-01-16T07:44:38.051Z,16.67
2019-01-16T07:47:24.419Z,16.12
2019-01-16T07:50:16.958Z,16.48
2019-01-16T07:52:41.095Z,16.10
2019-01-16T07:55:16.838Z,16.80
2019-01-16T07:57:49.398Z,16.67
2019-01-16T08:00:24.947Z,17.20
2019-01-16T08:03:03.502Z,16.27
2019-01-16T08:05:42.494Z,16.12
2019-01-16T08:08:28.506Z,16.77
2019-01-16T08:10:58.340Z,17.27
2019-01-16T08:13:31.314Z,16.87
2019-01-16T08:16:17.666Z,16.65
2019-01-16T08:18:50.462Z,16.65
2019-01-16T08:21:20.319Z,17.07
2019-01-16T08:24:08.371Z,17.65
2019-01-16T08:26:50.173Z,17.45
2019-01-16T08:29:35.103Z,18.20
2019-01-16T08:32:13.762Z,17.42
2019-01-16T08:34:46.306Z,18.42
2019-01-16T08:37:19.113Z,17.50
2019-01-16T08:39:51.708Z,16.90
2019-01-16T08:42:27.548Z,16.90
2019-01-16T08:45:03.534Z,16.47
2019-01-16T08:47:39.264Z,15.23
2019-01-16T08:50:24.186Z,15.80
2019-01-16T08:52:56.795Z,15.63
2019-01-16T08:55:44.726Z,15.80
2019-01-16T08:58:26.512Z,15.80
2019-01-16T09:00:56.346Z,15.08
2019-01-16T09:03:26.192Z,14.90
2019-01-16T09:05:58.806Z,14.65
2019-01-16T09:08:40.694Z,14.15
2019-01-16T09:11:13.249Z,13.93
2019-01-16T09:13:46.030Z,13.93
2019-01-16T09:16:18.627Z,13.78
2019-01-16T09:18:57.417Z,13.75
2019-01-16T09:21:39.434Z,13.70
2019-01-16T09:24:25.511Z,14.00
2019-01-16T09:26:58.493Z,13.35
2019-01-16T09:29:44.614Z,12.75
2019-01-16T09:32:17.454Z,13.03
2019-01-16T09:35:01.998Z,12.43
2019-01-16T09:37:47.122Z,12.78
2019-01-16T09:40:28.937Z,12.88
2019-01-16T09:43:07.780Z,12.35
2019-01-16T09:45:43.844Z,12.30
2019-01-16T09:48:19.898Z,12.70
2019-01-16T09:50:49.783Z,12.63
2019-01-16T09:53:28.392Z,12.03
2019-01-16T09:55:58.224Z,12.25
2019-01-16T09:58:28.066Z,12.37
2019-01-16T10:00:57.910Z,11.53
2019-01-16T10:03:44.206Z,12.37
2019-01-16T10:06:14.071Z,11.73
2019-01-16T10:08:43.894Z,12.30
2019-01-16T10:11:16.526Z,12.15
2019-01-16T10:13:49.534Z,11.40
2019-01-16T10:16:19.373Z,11.38
2019-01-16T10:19:05.878Z,11.57
2019-01-16T10:21:45.019Z,11.20
2019-01-16T10:24:17.618Z,11.18
2019-01-16T10:26:47.458Z,11.03
2019-01-16T10:29:26.514Z,10.83
2019-01-16T10:31:56.342Z,11.25
2019-01-16T10:34:42.265Z,11.03
2019-01-16T10:37:28.206Z,11.20
2019-01-16T10:40:14.603Z,10.58
2019-01-16T10:42:47.426Z,10.50
2019-01-16T10:45:33.638Z,10.20
2019-01-16T10:48:09.418Z,10.60
2019-01-16T10:50:51.259Z,9.68
2019-01-16T10:53:23.952Z,10.45
2019-01-16T10:56:05.811Z,8.70
2019-01-16T10:58:41.666Z,8.40
2019-01-16T11:01:28.210Z,8.50
2019-01-16T11:03:58.051Z,8.80
2019-01-16T11:06:33.854Z,8.20
2019-01-16T11:09:21.751Z,8.23
2019-01-16T11:12:08.295Z,8.05
2019-01-16T11:14:47.348Z,8.40
2019-01-16T11:17:35.333Z,8.05
2019-01-16T11:20:21.834Z,7.75
2019-01-16T11:22:54.239Z,8.50
2019-01-16T11:25:36.125Z,7.97
2019-01-16T11:28:21.050Z,8.40
2019-01-16T11:30:56.861Z,8.23
2019-01-16T11:33:26.719Z,7.78
2019-01-16T11:35:56.566Z,7.80
2019-01-16T11:38:38.393Z,7.67
2019-01-16T11:41:08.235Z,7.42
2019-01-16T11:43:56.283Z,7.80
2019-01-16T11:46:26.107Z,7.87
2019-01-16T11:49:01.696Z,8.35
2019-01-16T11:51:34.230Z,7.72
2019-01-16T11:54:15.894Z,8.00
2019-01-16T11:56:48.454Z,8.13
2019-01-16T11:59:24.331Z,8.37
2019-01-16T12:01:57.160Z,8.03
2019-01-16T12:04:39.287Z,8.28
2019-01-16T12:07:09.118Z,8.40
2019-01-16T12:09:48.249Z,7.83
2019-01-16T12:12:23.893Z,8.18
2019-01-16T12:14:53.754Z,8.63
2019-01-16T12:17:23.615Z,8.20
2019-01-16T12:20:11.866Z,8.20
2019-01-16T12:22:50.887Z,7.97
2019-01-16T12:25:23.439Z,7.42
2019-01-16T12:27:56.195Z,8.03
2019-01-16T12:30:26.027Z,7.75
2019-01-16T12:32:55.891Z,7.70
2019-01-16T12:35:44.259Z,8.50
2019-01-16T12:38:22.902Z,7.28
2019-01-16T12:40:58.614Z,7.15
2019-01-16T12:43:44.771Z,7.50
2019-01-16T12:46:23.662Z,7.00
2019-01-16T12:49:11.859Z,6.87
2019-01-16T12:51:44.147Z,7.17
2019-01-16T12:54:14.009Z,6.90
2019-01-16T12:56:49.706Z,6.75
2019-01-16T12:59:28.783Z,6.75
2019-01-16T13:02:01.482Z,6.50
2019-01-16T13:04:46.123Z,6.87
2019-01-16T13:07:18.623Z,6.50
2019-01-16T13:10:00.489Z,6.43
2019-01-16T13:12:39.057Z,6.83
2019-01-16T13:15:25.386Z,6.25
2019-01-16T13:18:07.371Z,6.50
2019-01-16T13:20:42.991Z,6.45
2019-01-16T13:23:18.551Z,6.28
2019-01-16T13:26:04.466Z,6.08
2019-01-16T13:28:50.766Z,6.05
2019-01-16T13:31:20.625Z,5.90
2019-01-16T13:34:06.671Z,6.00
2019-01-16T13:36:42.777Z,5.75
2019-01-16T13:39:18.854Z,5.78
2019-01-16T13:42:04.043Z,5.80
2019-01-16T13:44:50.220Z,5.87
2019-01-16T13:47:36.698Z,5.90
2019-01-16T13:50:15.802Z,5.90
2019-01-16T13:52:45.657Z,5.70
2019-01-16T13:55:15.524Z,5.80
2019-01-16T13:57:45.352Z,5.62
2019-01-16T14:00:18.150Z,5.90
2019-01-16T14:02:50.686Z,5.60
2019-01-16T14:05:23.510Z,5.80
2019-01-16T14:07:53.362Z,5.67
2019-01-16T14:10:23.194Z,5.85
2019-01-16T14:13:09.549Z,5.50
2019-01-16T14:15:48.674Z,5.37
2019-01-16T14:18:36.966Z,5.80
2019-01-16T14:21:22.192Z,5.95
2019-01-16T14:23:57.835Z,5.97
2019-01-16T14:26:43.870Z,5.78
2019-01-16T14:29:30.465Z,6.03
2019-01-16T14:32:00.297Z,6.05
2019-01-16T14:34:45.182Z,5.83
2019-01-16T14:37:31.482Z,5.65
2019-01-16T14:40:17.663Z,5.85
2019-01-16T14:42:56.647Z,5.87
2019-01-16T14:45:38.318Z,6.20
2019-01-16T14:48:10.839Z,6.20
2019-01-16T14:50:40.670Z,6.20
2019-01-16T14:53:10.532Z,6.13
2019-01-16T14:55:40.373Z,6.50
2019-01-16T14:58:18.910Z,6.25
2019-01-16T15:00:54.542Z,6.35
2019-01-16T15:03:27.125Z,6.40
2019-01-16T15:06:03.265Z,6.50
2019-01-16T15:08:48.277Z,6.50
2019-01-16T15:11:24.102Z,6.67
2019-01-16T15:13:56.597Z,6.53
2019-01-16T15:16:41.787Z,7.25
2019-01-16T15:19:17.561Z,7.20
2019-01-16T15:21:53.630Z,7.67
2019-01-16T15:24:29.722Z,7.25
2019-01-16T15:27:02.296Z,8.20
2019-01-16T15:29:48.441Z,7.25
2019-01-16T15:32:32.923Z,7.42
2019-01-16T15:35:19.742Z,7.30
2019-01-16T15:37:49.574Z,8.00
2019-01-16T15:40:22.598Z,8.48
2019-01-16T15:42:52.475Z,7.72
2019-01-16T15:45:22.322Z,7.40
2019-01-16T15:48:10.778Z,7.08
2019-01-16T15:50:46.562Z,7.70
2019-01-16T15:53:19.114Z,7.87
2019-01-16T15:55:51.646Z,7.85
2019-01-16T15:58:27.227Z,7.50
2019-01-16T16:01:02.989Z,7.70
2019-01-16T16:03:32.870Z,8.03
2019-01-16T16:06:18.957Z,8.83
2019-01-16T16:08:57.890Z,10.70
2019-01-16T16:11:30.423Z,13.13
2019-01-16T16:14:00.259Z,14.93
2019-01-16T16:16:30.113Z,13.55
2019-01-16T16:19:16.249Z,11.27
2019-01-16T16:21:46.111Z,11.97
2019-01-16T16:24:15.946Z,11.73
2019-01-16T16:26:57.971Z,11.93
2019-01-16T16:29:33.627Z,11.73
2019-01-16T16:32:06.207Z,11.28
2019-01-16T16:34:41.791Z,12.15
2019-01-16T16:37:23.279Z,11.85
2019-01-16T16:40:02.082Z,12.03
2019-01-16T16:42:40.947Z,12.40
2019-01-16T16:45:29.349Z,12.80
2019-01-16T16:47:59.202Z,12.15
2019-01-16T16:50:29.042Z,12.35
2019-01-16T16:53:05.174Z,12.07
2019-01-16T16:55:44.118Z,14.43
2019-01-16T16:58:16.689Z,13.00
2019-01-16T17:00:46.522Z,13.20
2019-01-16T17:03:22.370Z,12.80
2019-01-16T17:06:01.362Z,13.38
2019-01-16T17:08:40.430Z,13.95
2019-01-16T17:11:26.510Z,11.90
2019-01-16T17:13:59.362Z,11.30
2019-01-16T17:16:35.181Z,11.80
2019-01-16T17:19:11.036Z,11.20
2019-01-16T17:21:40.869Z,11.05
2019-01-16T17:24:13.646Z,12.10
2019-01-16T17:26:46.266Z,11.65
2019-01-16T17:29:32.605Z,11.35
2019-01-16T17:32:02.453Z,11.73
2019-01-16T17:34:32.302Z,11.68
2019-01-16T17:37:02.130Z,12.23
2019-01-16T17:39:31.986Z,12.60
2019-01-16T17:42:10.341Z,12.60
2019-01-16T17:44:40.210Z,14.03
2019-01-16T17:47:22.170Z,15.03
2019-01-16T17:49:54.734Z,19.75
2019-01-16T17:52:24.566Z,24.55
2019-01-16T17:55:00.666Z,24.40
2019-01-16T17:57:39.739Z,25.45
2019-01-16T18:00:29.384Z,26.33
2019-01-16T18:02:59.218Z,29.70
2019-01-16T18:05:44.331Z,26.48
2019-01-16T18:08:14.169Z,24.12
2019-01-16T18:10:53.018Z,23.75
2019-01-16T18:14:43.957Z,22.42
2019-01-16T18:17:30.079Z,21.93
2019-01-16T18:20:05.907Z,18.98
2019-01-16T18:22:35.762Z,17.82
2019-01-16T18:25:22.692Z,17.80
2019-01-16T18:28:07.913Z,18.23
2019-01-16T18:30:54.146Z,17.70
2019-01-16T18:33:24.038Z,18.87
2019-01-16T18:36:08.970Z,18.57
2019-01-16T18:38:41.482Z,18.23
2019-01-16T18:41:20.226Z,18.70
2019-01-16T18:43:50.101Z,19.57
2019-01-16T18:46:34.940Z,20.43
2019-01-16T18:49:20.026Z,18.52
2019-01-16T18:52:05.263Z,17.80
2019-01-16T18:54:51.590Z,17.52
2019-01-16T18:57:24.423Z,17.47
2019-01-16T19:00:06.308Z,15.93
2019-01-16T19:02:42.002Z,16.10
2019-01-16T19:05:20.869Z,14.45
2019-01-16T19:08:00.034Z,14.58
2019-01-16T19:10:38.622Z,13.72
2019-01-16T19:13:08.501Z,13.32
2019-01-16T19:15:54.935Z,13.15
2019-01-16T19:18:24.791Z,12.65
2019-01-16T19:21:00.391Z,13.38
2019-01-16T19:23:30.262Z,13.28
2019-01-16T19:26:16.609Z,12.90
2019-01-16T19:28:55.550Z,13.65
2019-01-16T19:31:31.361Z,12.90
2019-01-16T19:34:03.941Z,13.48
2019-01-16T19:36:45.874Z,12.60
2019-01-16T19:39:31.998Z,13.22
2019-01-16T19:42:10.870Z,15.40
2019-01-16T19:44:55.790Z,16.60
2019-01-16T19:47:34.302Z,19.25
2019-01-16T19:50:04.191Z,19.23
2019-01-16T19:52:34.038Z,19.82
2019-01-16T19:55:06.875Z,17.10
2019-01-16T19:57:36.738Z,18.57
2019-01-16T20:00:12.639Z,20.75
2019-01-16T20:02:51.419Z,20.65
2019-01-16T20:05:41.035Z,22.13
2019-01-16T20:08:24.879Z,21.60
2019-01-16T20:11:03.729Z,20.75
2019-01-16T20:13:33.606Z,22.45
2019-01-16T20:16:21.647Z,22.37
2019-01-16T20:18:51.523Z,23.20
2019-01-16T20:21:21.639Z,24.37
2019-01-16T20:23:57.482Z,25.80
2019-01-16T20:26:27.321Z,24.00
2019-01-16T20:29:06.153Z,25.68
2019-01-16T20:31:35.984Z,24.35
2019-01-16T20:34:14.646Z,23.47
2019-01-16T20:36:44.481Z,24.45
2019-01-16T20:39:17.173Z,22.10
2019-01-16T20:41:52.825Z,15.88
2019-01-16T20:44:39.158Z,19.15
2019-01-16T20:47:25.597Z,21.65
2019-01-16T20:50:10.727Z,21.77
2019-01-16T20:52:49.505Z,20.77
2019-01-16T20:55:20.534Z,20.40
2019-01-16T20:57:53.131Z,18.80
2019-01-16T21:00:39.206Z,16.50
2019-01-16T21:03:12.050Z,16.10
2019-01-16T21:05:50.766Z,17.02
2019-01-16T21:08:32.965Z,15.30
2019-01-16T21:11:19.101Z,14.10
2019-01-16T21:13:49.008Z,13.98
2019-01-16T21:16:30.834Z,13.03
2019-01-16T21:19:06.471Z,12.63
2019-01-16T21:21:39.015Z,12.50
2019-01-16T21:24:25.113Z,11.97
2019-01-16T21:27:04.217Z,12.03
2019-01-16T21:29:37.046Z,11.97
2019-01-16T21:32:19.184Z,11.73
2019-01-16T21:34:49.058Z,11.30
2019-01-16T21:37:35.494Z,11.95
2019-01-16T21:40:17.140Z,11.88
2019-01-16T21:42:49.918Z,11.22
2019-01-16T21:45:37.903Z,11.47
2019-01-16T21:48:13.320Z,11.78
2019-01-16T21:50:49.893Z,11.80
2019-01-16T21:53:31.581Z,11.68
2019-01-16T21:56:01.437Z,11.20
2019-01-16T21:58:47.508Z,11.50
2019-01-16T22:01:29.603Z,11.65
2019-01-16T22:03:59.450Z,11.55
2019-01-16T22:06:32.320Z,11.35
2019-01-16T22:09:15.218Z,11.95
2019-01-16T22:11:54.069Z,11.53
2019-01-16T22:14:26.643Z,11.78
2019-01-16T22:17:05.270Z,11.57
2019-01-16T22:19:51.370Z,11.28
2019-01-16T22:22:33.457Z,11.03
2019-01-16T22:25:03.326Z,11.48
2019-01-16T22:27:33.155Z,11.53
2019-01-16T22:30:08.972Z,11.15
2019-01-16T22:32:55.102Z,11.70
2019-01-16T22:35:24.970Z,12.53
2019-01-16T22:37:57.530Z,12.70
2019-01-16T22:40:27.378Z,11.83
2019-01-16T22:43:00.023Z,12.05
2019-01-16T22:45:39.165Z,12.07
2019-01-16T22:48:25.364Z,12.63
2019-01-16T22:50:55.214Z,12.10
2019-01-16T22:53:25.110Z,12.57
2019-01-16T22:55:54.951Z,12.60
2019-01-16T22:58:24.827Z,13.28
2019-01-16T23:01:03.938Z,15.65
2019-01-16T23:03:33.799Z,14.83
2019-01-16T23:06:06.354Z,13.10
2019-01-16T23:08:39.174Z,12.43
2019-01-16T23:11:09.006Z,12.58
2019-01-16T23:13:38.853Z,12.87
2019-01-16T23:16:14.937Z,13.13
2019-01-16T23:18:44.789Z,13.15
2019-01-16T23:21:31.051Z,13.95
2019-01-16T23:24:00.885Z,13.83
2019-01-16T23:26:48.849Z,13.85
2019-01-16T23:29:27.275Z,14.40
2019-01-16T23:32:15.251Z,15.00
2019-01-16T23:34:45.085Z,14.30
2019-01-16T23:37:14.926Z,14.78
2019-01-16T23:39:44.791Z,14.30
2019-01-16T23:42:23.579Z,15.00
2019-01-16T23:44:59.697Z,14.98
2019-01-16T23:47:32.441Z,15.08
2019-01-16T23:50:08.363Z,14.70
2019-01-16T23:52:44.158Z,15.25
2019-01-16T23:55:14.026Z,14.73
2019-01-16T23:57:43.882Z,15.23
